sensor_id;sensor_type;location;lat;lon;timestamp;temperature;humidity
4530;DHT22;2277;51.626;7.516;2022-12-18T00:02:13;-6.00;99.90
4530;DHT22;2277;51.626;7.516;2022-12-18T00:04:39;-5.90;99.90
4530;DHT22;2277;51.626;7.516;2022-12-18T00:07:04;-5.90;99.90
4530;DHT22;2277;51.626;7.516;2022-12-18T00:09:30;-5.80;99.90
4530;DHT22;2277;51.626;7.516;2022-12-18T00:11:55;-5.70;99.90
4530;DHT22;2277;51.626;7.516;2022-12-18T00:14:21;-5.60;99.90
4530;DHT22;2277;51.626;7.516;2022-12-18T00:16:47;-5.60;99.90
4530;DHT22;2277;51.626;7.516;2022-12-18T00:19:13;-5.60;99.90
4530;DHT22;2277;51.626;7.516;2022-12-18T00:21:40;-5.60;99.90
4530;DHT22;2277;51.626;7.516;2022-12-18T00:24:06;-5.70;99.90
4530;DHT22;2277;51.626;7.516;2022-12-18T00:26:33;-5.70;99.90
4530;DHT22;2277;51.626;7.516;2022-12-18T00:29:05;-5.60;99.90
4530;DHT22;2277;51.626;7.516;2022-12-18T00:31:31;-5.50;99.90
4530;DHT22;2277;51.626;7.516;2022-12-18T00:33:57;-5.50;99.90
4530;DHT22;2277;51.626;7.516;2022-12-18T00:36:26;-5.50;99.90
4530;DHT22;2277;51.626;7.516;2022-12-18T00:38:54;-5.50;99.90
4530;DHT22;2277;51.626;7.516;2022-12-18T00:41:20;-5.60;99.90
4530;DHT22;2277;51.626;7.516;2022-12-18T00:44:07;-5.60;99.90
4530;DHT22;2277;51.626;7.516;2022-12-18T00:46:33;-5.60;99.90
4530;DHT22;2277;51.626;7.516;2022-12-18T00:48:59;-5.50;99.90
4530;DHT22;2277;51.626;7.516;2022-12-18T00:51:25;-5.50;99.90
4530;DHT22;2277;51.626;7.516;2022-12-18T00:53:52;-5.50;99.90
4530;DHT22;2277;51.626;7.516;2022-12-18T00:56:17;-5.50;99.90
4530;DHT22;2277;51.626;7.516;2022-12-18T00:58:43;-5.50;99.90
4530;DHT22;2277;51.626;7.516;2022-12-18T01:01:08;-5.60;99.90
4530;DHT22;2277;51.626;7.516;2022-12-18T01:03:34;-5.80;99.90
4530;DHT22;2277;51.626;7.516;2022-12-18T01:06:08;-5.80;99.90
4530;DHT22;2277;51.626;7.516;2022-12-18T01:08:34;-5.90;99.90
4530;DHT22;2277;51.626;7.516;2022-12-18T01:11:00;-6.10;99.90
4530;DHT22;2277;51.626;7.516;2022-12-18T01:13:25;-6.40;99.90
4530;DHT22;2277;51.626;7.516;2022-12-18T01:15:51;-6.50;99.90
4530;DHT22;2277;51.626;7.516;2022-12-18T01:18:17;-6.70;99.90
4530;DHT22;2277;51.626;7.516;2022-12-18T01:20:42;-6.80;99.90
4530;DHT22;2277;51.626;7.516;2022-12-18T01:23:08;-6.90;99.90
4530;DHT22;2277;51.626;7.516;2022-12-18T01:25:36;-6.90;99.90
4530;DHT22;2277;51.626;7.516;2022-12-18T01:28:02;-6.90;99.90
4530;DHT22;2277;51.626;7.516;2022-12-18T01:30:27;-6.80;99.90
4530;DHT22;2277;51.626;7.516;2022-12-18T01:32:53;-6.60;99.90
4530;DHT22;2277;51.626;7.516;2022-12-18T01:35:19;-6.50;99.90
4530;DHT22;2277;51.626;7.516;2022-12-18T01:37:45;-6.30;99.90
4530;DHT22;2277;51.626;7.516;2022-12-18T01:40:11;-6.30;99.90
4530;DHT22;2277;51.626;7.516;2022-12-18T01:42:37;-6.40;99.90
4530;DHT22;2277;51.626;7.516;2022-12-18T01:53:15;-6.60;99.90
4530;DHT22;2277;51.626;7.516;2022-12-18T01:55:56;-6.60;99.90
4530;DHT22;2277;51.626;7.516;2022-12-18T01:58:30;-6.60;99.90
4530;DHT22;2277;51.626;7.516;2022-12-18T02:00:58;-6.50;99.90
4530;DHT22;2277;51.626;7.516;2022-12-18T02:03:23;-6.40;99.90
4530;DHT22;2277;51.626;7.516;2022-12-18T02:05:54;-6.30;99.90
4530;DHT22;2277;51.626;7.516;2022-12-18T02:08:33;-6.20;99.90
4530;DHT22;2277;51.626;7.516;2022-12-18T02:11:14;-6.10;99.90
4530;DHT22;2277;51.626;7.516;2022-12-18T02:14:04;-6.00;99.90
4530;DHT22;2277;51.626;7.516;2022-12-18T02:16:59;-6.20;99.90
4530;DHT22;2277;51.626;7.516;2022-12-18T02:27:34;-6.90;99.90
4530;DHT22;2277;51.626;7.516;2022-12-18T02:30:03;-7.00;99.90
4530;DHT22;2277;51.626;7.516;2022-12-18T02:32:33;-7.10;99.90
4530;DHT22;2277;51.626;7.516;2022-12-18T02:34:59;-7.00;99.90
4530;DHT22;2277;51.626;7.516;2022-12-18T02:37:28;-7.00;99.90
4530;DHT22;2277;51.626;7.516;2022-12-18T02:39:56;-6.90;99.90
4530;DHT22;2277;51.626;7.516;2022-12-18T02:42:24;-6.80;99.90
4530;DHT22;2277;51.626;7.516;2022-12-18T02:44:51;-6.80;99.90
4530;DHT22;2277;51.626;7.516;2022-12-18T02:47:20;-6.90;99.90
4530;DHT22;2277;51.626;7.516;2022-12-18T02:52:23;-6.90;99.90
4530;DHT22;2277;51.626;7.516;2022-12-18T02:55:13;-6.90;99.90
4530;DHT22;2277;51.626;7.516;2022-12-18T03:00:37;-6.90;99.90
4530;DHT22;2277;51.626;7.516;2022-12-18T03:06:01;-6.90;99.90
4530;DHT22;2277;51.626;7.516;2022-12-18T03:08:34;-6.90;99.90
4530;DHT22;2277;51.626;7.516;2022-12-18T03:11:03;-6.90;99.90
4530;DHT22;2277;51.626;7.516;2022-12-18T03:13:35;-6.80;99.90
4530;DHT22;2277;51.626;7.516;2022-12-18T03:16:02;-6.60;99.90
4530;DHT22;2277;51.626;7.516;2022-12-18T03:18:39;-6.50;99.90
4530;DHT22;2277;51.626;7.516;2022-12-18T03:21:09;-6.40;99.90
4530;DHT22;2277;51.626;7.516;2022-12-18T03:23:40;-6.30;99.90
4530;DHT22;2277;51.626;7.516;2022-12-18T03:26:10;-6.20;99.90
4530;DHT22;2277;51.626;7.516;2022-12-18T03:28:39;-6.10;99.90
4530;DHT22;2277;51.626;7.516;2022-12-18T03:31:09;-6.10;99.90
4530;DHT22;2277;51.626;7.516;2022-12-18T03:33:47;-6.00;99.90
4530;DHT22;2277;51.626;7.516;2022-12-18T03:36:16;-6.10;99.90
4530;DHT22;2277;51.626;7.516;2022-12-18T03:38:42;-6.20;99.90
4530;DHT22;2277;51.626;7.516;2022-12-18T03:41:25;-6.40;99.90
4530;DHT22;2277;51.626;7.516;2022-12-18T03:46:36;-6.60;99.90
4530;DHT22;2277;51.626;7.516;2022-12-18T03:52:01;-6.60;99.90
4530;DHT22;2277;51.626;7.516;2022-12-18T03:54:29;-6.50;99.90
4530;DHT22;2277;51.626;7.516;2022-12-18T03:57:01;-6.50;99.90
4530;DHT22;2277;51.626;7.516;2022-12-18T03:59:29;-6.50;99.90
4530;DHT22;2277;51.626;7.516;2022-12-18T04:01:57;-6.40;99.90
4530;DHT22;2277;51.626;7.516;2022-12-18T04:04:24;-6.30;99.90
4530;DHT22;2277;51.626;7.516;2022-12-18T04:06:52;-6.30;99.90
4530;DHT22;2277;51.626;7.516;2022-12-18T04:09:19;-6.20;99.90
4530;DHT22;2277;51.626;7.516;2022-12-18T04:11:46;-6.20;99.90
4530;DHT22;2277;51.626;7.516;2022-12-18T04:14:12;-6.20;99.90
4530;DHT22;2277;51.626;7.516;2022-12-18T04:16:38;-6.30;99.90
4530;DHT22;2277;51.626;7.516;2022-12-18T04:19:04;-6.40;99.90
4530;DHT22;2277;51.626;7.516;2022-12-18T04:21:30;-6.50;99.90
4530;DHT22;2277;51.626;7.516;2022-12-18T04:23:55;-6.60;99.90
4530;DHT22;2277;51.626;7.516;2022-12-18T04:26:21;-6.60;99.90
4530;DHT22;2277;51.626;7.516;2022-12-18T04:28:46;-6.70;99.90
4530;DHT22;2277;51.626;7.516;2022-12-18T04:31:13;-6.60;99.90
4530;DHT22;2277;51.626;7.516;2022-12-18T04:33:38;-6.60;99.90
4530;DHT22;2277;51.626;7.516;2022-12-18T04:36:04;-6.50;99.90
4530;DHT22;2277;51.626;7.516;2022-12-18T04:38:30;-6.40;99.90
4530;DHT22;2277;51.626;7.516;2022-12-18T04:40:55;-6.30;99.90
4530;DHT22;2277;51.626;7.516;2022-12-18T04:43:21;-6.30;99.90
4530;DHT22;2277;51.626;7.516;2022-12-18T04:45:47;-6.40;99.90
4530;DHT22;2277;51.626;7.516;2022-12-18T04:48:12;-6.40;99.90
4530;DHT22;2277;51.626;7.516;2022-12-18T04:50:38;-6.40;99.90
4530;DHT22;2277;51.626;7.516;2022-12-18T04:53:03;-6.40;99.90
4530;DHT22;2277;51.626;7.516;2022-12-18T04:55:29;-6.50;99.90
4530;DHT22;2277;51.626;7.516;2022-12-18T04:57:55;-6.70;99.90
4530;DHT22;2277;51.626;7.516;2022-12-18T05:00:21;-6.70;99.90
4530;DHT22;2277;51.626;7.516;2022-12-18T05:02:46;-6.70;99.90
4530;DHT22;2277;51.626;7.516;2022-12-18T05:05:12;-6.70;99.90
4530;DHT22;2277;51.626;7.516;2022-12-18T05:07:38;-6.70;99.90
4530;DHT22;2277;51.626;7.516;2022-12-18T05:10:07;-6.60;99.90
4530;DHT22;2277;51.626;7.516;2022-12-18T05:12:33;-6.60;99.90
4530;DHT22;2277;51.626;7.516;2022-12-18T05:14:58;-6.70;99.90
4530;DHT22;2277;51.626;7.516;2022-12-18T05:17:24;-6.70;99.90
4530;DHT22;2277;51.626;7.516;2022-12-18T05:19:49;-6.70;99.90
4530;DHT22;2277;51.626;7.516;2022-12-18T05:22:15;-6.70;99.90
4530;DHT22;2277;51.626;7.516;2022-12-18T05:24:40;-6.60;99.90
4530;DHT22;2277;51.626;7.516;2022-12-18T05:27:06;-6.60;99.90
4530;DHT22;2277;51.626;7.516;2022-12-18T05:29:32;-6.50;99.90
4530;DHT22;2277;51.626;7.516;2022-12-18T05:31:57;-6.40;99.90
4530;DHT22;2277;51.626;7.516;2022-12-18T05:34:23;-6.30;99.90
4530;DHT22;2277;51.626;7.516;2022-12-18T05:36:48;-6.20;99.90
4530;DHT22;2277;51.626;7.516;2022-12-18T05:39:14;-6.20;99.90
4530;DHT22;2277;51.626;7.516;2022-12-18T05:41:40;-6.20;99.90
4530;DHT22;2277;51.626;7.516;2022-12-18T05:44:05;-6.10;99.90
4530;DHT22;2277;51.626;7.516;2022-12-18T05:46:31;-6.10;99.90
4530;DHT22;2277;51.626;7.516;2022-12-18T05:48:59;-6.00;99.90
4530;DHT22;2277;51.626;7.516;2022-12-18T05:51:26;-6.00;99.90
4530;DHT22;2277;51.626;7.516;2022-12-18T05:53:51;-6.00;99.90
4530;DHT22;2277;51.626;7.516;2022-12-18T05:56:20;-6.00;99.90
4530;DHT22;2277;51.626;7.516;2022-12-18T05:58:46;-5.90;99.90
4530;DHT22;2277;51.626;7.516;2022-12-18T06:01:21;-5.90;99.90
4530;DHT22;2277;51.626;7.516;2022-12-18T06:03:47;-5.90;99.90
4530;DHT22;2277;51.626;7.516;2022-12-18T06:06:23;-5.80;99.90
4530;DHT22;2277;51.626;7.516;2022-12-18T06:08:50;-5.80;99.90
4530;DHT22;2277;51.626;7.516;2022-12-18T06:11:18;-5.90;99.90
4530;DHT22;2277;51.626;7.516;2022-12-18T06:13:44;-5.90;99.90
4530;DHT22;2277;51.626;7.516;2022-12-18T06:16:10;-5.90;99.90
4530;DHT22;2277;51.626;7.516;2022-12-18T06:18:35;-5.90;99.90
4530;DHT22;2277;51.626;7.516;2022-12-18T06:21:04;-5.90;99.90
4530;DHT22;2277;51.626;7.516;2022-12-18T06:23:29;-5.80;99.90
4530;DHT22;2277;51.626;7.516;2022-12-18T06:25:55;-5.70;99.90
4530;DHT22;2277;51.626;7.516;2022-12-18T06:28:21;-5.70;99.90
4530;DHT22;2277;51.626;7.516;2022-12-18T06:30:47;-5.60;99.90
4530;DHT22;2277;51.626;7.516;2022-12-18T06:33:14;-5.60;99.90
4530;DHT22;2277;51.626;7.516;2022-12-18T06:35:40;-5.50;99.90
4530;DHT22;2277;51.626;7.516;2022-12-18T06:38:06;-5.50;99.90
4530;DHT22;2277;51.626;7.516;2022-12-18T06:40:31;-5.50;99.90
4530;DHT22;2277;51.626;7.516;2022-12-18T06:42:57;-5.50;99.90
4530;DHT22;2277;51.626;7.516;2022-12-18T06:45:23;-5.50;99.90
4530;DHT22;2277;51.626;7.516;2022-12-18T06:47:49;-5.50;99.90
4530;DHT22;2277;51.626;7.516;2022-12-18T06:50:15;-5.40;99.90
4530;DHT22;2277;51.626;7.516;2022-12-18T06:52:40;-5.40;99.90
4530;DHT22;2277;51.626;7.516;2022-12-18T06:55:08;-5.40;99.90
4530;DHT22;2277;51.626;7.516;2022-12-18T06:57:33;-5.40;99.90
4530;DHT22;2277;51.626;7.516;2022-12-18T06:59:59;-5.40;99.90
4530;DHT22;2277;51.626;7.516;2022-12-18T07:02:25;-5.30;99.90
4530;DHT22;2277;51.626;7.516;2022-12-18T07:04:50;-5.30;99.90
4530;DHT22;2277;51.626;7.516;2022-12-18T07:07:16;-5.30;99.90
4530;DHT22;2277;51.626;7.516;2022-12-18T07:09:42;-5.30;99.90
4530;DHT22;2277;51.626;7.516;2022-12-18T07:12:07;-5.40;99.90
4530;DHT22;2277;51.626;7.516;2022-12-18T07:14:33;-5.40;99.90
4530;DHT22;2277;51.626;7.516;2022-12-18T07:16:59;-5.30;99.90
4530;DHT22;2277;51.626;7.516;2022-12-18T07:19:25;-5.30;99.90
4530;DHT22;2277;51.626;7.516;2022-12-18T07:21:50;-5.30;99.90
4530;DHT22;2277;51.626;7.516;2022-12-18T07:24:16;-5.30;99.90
4530;DHT22;2277;51.626;7.516;2022-12-18T07:26:42;-5.30;99.90
4530;DHT22;2277;51.626;7.516;2022-12-18T07:29:07;-5.30;99.90
4530;DHT22;2277;51.626;7.516;2022-12-18T07:31:33;-5.30;99.90
4530;DHT22;2277;51.626;7.516;2022-12-18T07:33:59;-5.30;99.90
4530;DHT22;2277;51.626;7.516;2022-12-18T07:36:25;-5.20;99.90
4530;DHT22;2277;51.626;7.516;2022-12-18T07:38:51;-5.30;99.90
4530;DHT22;2277;51.626;7.516;2022-12-18T07:41:17;-5.40;99.90
4530;DHT22;2277;51.626;7.516;2022-12-18T07:43:44;-5.40;99.90
4530;DHT22;2277;51.626;7.516;2022-12-18T07:46:10;-5.50;99.90
4530;DHT22;2277;51.626;7.516;2022-12-18T07:48:36;-5.40;99.90
4530;DHT22;2277;51.626;7.516;2022-12-18T07:51:04;-5.30;99.90
4530;DHT22;2277;51.626;7.516;2022-12-18T07:53:31;-5.30;99.90
4530;DHT22;2277;51.626;7.516;2022-12-18T07:55:58;-5.30;99.90
4530;DHT22;2277;51.626;7.516;2022-12-18T07:58:24;-5.20;99.90
4530;DHT22;2277;51.626;7.516;2022-12-18T08:00:50;-5.20;99.90
4530;DHT22;2277;51.626;7.516;2022-12-18T08:03:16;-5.10;99.90
4530;DHT22;2277;51.626;7.516;2022-12-18T08:05:41;-5.00;99.90
4530;DHT22;2277;51.626;7.516;2022-12-18T08:08:07;-4.90;99.90
4530;DHT22;2277;51.626;7.516;2022-12-18T08:10:32;-4.90;99.90
4530;DHT22;2277;51.626;7.516;2022-12-18T08:12:58;-4.90;99.90
4530;DHT22;2277;51.626;7.516;2022-12-18T08:15:23;-4.80;99.90
4530;DHT22;2277;51.626;7.516;2022-12-18T08:17:49;-4.80;99.90
4530;DHT22;2277;51.626;7.516;2022-12-18T08:20:15;-4.80;99.90
4530;DHT22;2277;51.626;7.516;2022-12-18T08:22:42;-4.80;99.90
4530;DHT22;2277;51.626;7.516;2022-12-18T08:25:08;-4.80;99.90
4530;DHT22;2277;51.626;7.516;2022-12-18T08:27:34;-4.80;99.90
4530;DHT22;2277;51.626;7.516;2022-12-18T08:30:00;-4.90;99.90
4530;DHT22;2277;51.626;7.516;2022-12-18T08:32:27;-4.80;99.90
4530;DHT22;2277;51.626;7.516;2022-12-18T08:34:53;-4.80;99.90
4530;DHT22;2277;51.626;7.516;2022-12-18T08:37:18;-4.80;99.90
4530;DHT22;2277;51.626;7.516;2022-12-18T08:39:44;-4.80;99.90
4530;DHT22;2277;51.626;7.516;2022-12-18T08:42:10;-4.70;99.90
4530;DHT22;2277;51.626;7.516;2022-12-18T08:44:54;-4.70;99.90
4530;DHT22;2277;51.626;7.516;2022-12-18T08:47:19;-4.60;99.90
4530;DHT22;2277;51.626;7.516;2022-12-18T08:49:45;-4.50;99.90
4530;DHT22;2277;51.626;7.516;2022-12-18T08:52:11;-4.40;99.90
4530;DHT22;2277;51.626;7.516;2022-12-18T08:54:42;-4.20;99.90
4530;DHT22;2277;51.626;7.516;2022-12-18T08:57:08;-4.00;99.90
4530;DHT22;2277;51.626;7.516;2022-12-18T08:59:33;-3.80;99.90
4530;DHT22;2277;51.626;7.516;2022-12-18T09:01:59;-3.70;99.90
4530;DHT22;2277;51.626;7.516;2022-12-18T09:04:25;-3.60;99.90
4530;DHT22;2277;51.626;7.516;2022-12-18T09:06:50;-3.50;99.90
4530;DHT22;2277;51.626;7.516;2022-12-18T09:09:16;-3.50;99.90
4530;DHT22;2277;51.626;7.516;2022-12-18T09:11:41;-3.30;99.90
4530;DHT22;2277;51.626;7.516;2022-12-18T09:14:09;-3.20;99.90
4530;DHT22;2277;51.626;7.516;2022-12-18T09:16:35;-3.00;99.90
4530;DHT22;2277;51.626;7.516;2022-12-18T09:19:02;-2.80;99.90
4530;DHT22;2277;51.626;7.516;2022-12-18T09:21:30;-2.60;99.90
4530;DHT22;2277;51.626;7.516;2022-12-18T09:23:56;-2.50;99.90
4530;DHT22;2277;51.626;7.516;2022-12-18T09:26:23;-2.30;99.90
4530;DHT22;2277;51.626;7.516;2022-12-18T09:28:49;-2.20;99.90
4530;DHT22;2277;51.626;7.516;2022-12-18T09:31:17;-2.10;99.90
4530;DHT22;2277;51.626;7.516;2022-12-18T09:33:43;-2.00;99.90
4530;DHT22;2277;51.626;7.516;2022-12-18T09:36:12;-1.90;99.90
4530;DHT22;2277;51.626;7.516;2022-12-18T09:38:38;-1.80;99.90
4530;DHT22;2277;51.626;7.516;2022-12-18T09:43:53;-1.70;99.90
4530;DHT22;2277;51.626;7.516;2022-12-18T09:46:59;-1.60;99.90
4530;DHT22;2277;51.626;7.516;2022-12-18T09:49:30;-1.50;99.90
4530;DHT22;2277;51.626;7.516;2022-12-18T09:52:44;-1.20;99.90
4530;DHT22;2277;51.626;7.516;2022-12-18T09:57:45;-0.90;99.90
4530;DHT22;2277;51.626;7.516;2022-12-18T10:00:19;-0.80;99.90
4530;DHT22;2277;51.626;7.516;2022-12-18T10:02:45;-0.70;99.90
4530;DHT22;2277;51.626;7.516;2022-12-18T10:05:14;-0.60;99.90
4530;DHT22;2277;51.626;7.516;2022-12-18T10:10:19;-0.40;99.90
4530;DHT22;2277;51.626;7.516;2022-12-18T10:13:19;-0.20;99.90
4530;DHT22;2277;51.626;7.516;2022-12-18T10:15:53;0.00;99.90
4530;DHT22;2277;51.626;7.516;2022-12-18T10:21:17;0.10;99.90
4530;DHT22;2277;51.626;7.516;2022-12-18T10:26:23;0.20;99.90
4530;DHT22;2277;51.626;7.516;2022-12-18T10:28:49;0.30;99.90
4530;DHT22;2277;51.626;7.516;2022-12-18T10:31:19;0.30;99.90
4530;DHT22;2277;51.626;7.516;2022-12-18T10:33:45;0.40;99.90
4530;DHT22;2277;51.626;7.516;2022-12-18T10:36:11;0.40;99.90
4530;DHT22;2277;51.626;7.516;2022-12-18T10:38:37;0.50;99.90
4530;DHT22;2277;51.626;7.516;2022-12-18T10:41:24;0.50;99.90
4530;DHT22;2277;51.626;7.516;2022-12-18T10:44:24;0.60;99.90
4530;DHT22;2277;51.626;7.516;2022-12-18T10:47:04;0.60;99.90
4530;DHT22;2277;51.626;7.516;2022-12-18T10:49:32;0.70;99.90
4530;DHT22;2277;51.626;7.516;2022-12-18T10:52:24;0.80;99.90
4530;DHT22;2277;51.626;7.516;2022-12-18T10:54:55;0.60;99.90
4530;DHT22;2277;51.626;7.516;2022-12-18T10:59:54;0.30;99.90
4530;DHT22;2277;51.626;7.516;2022-12-18T11:02:38;0.30;99.90
4530;DHT22;2277;51.626;7.516;2022-12-18T11:05:30;0.40;99.90
4530;DHT22;2277;51.626;7.516;2022-12-18T11:07:57;0.50;99.90
4530;DHT22;2277;51.626;7.516;2022-12-18T11:10:44;0.60;99.90
4530;DHT22;2277;51.626;7.516;2022-12-18T11:13:23;0.60;99.90
4530;DHT22;2277;51.626;7.516;2022-12-18T11:15:50;0.50;99.90
4530;DHT22;2277;51.626;7.516;2022-12-18T11:18:29;0.60;99.90
4530;DHT22;2277;51.626;7.516;2022-12-18T11:21:09;0.50;99.90
4530;DHT22;2277;51.626;7.516;2022-12-18T11:23:36;0.50;99.90
4530;DHT22;2277;51.626;7.516;2022-12-18T11:26:04;0.30;99.90
4530;DHT22;2277;51.626;7.516;2022-12-18T11:29:22;0.30;99.90
4530;DHT22;2277;51.626;7.516;2022-12-18T11:34:10;0.40;99.90
4530;DHT22;2277;51.626;7.516;2022-12-18T11:36:47;0.30;99.90
4530;DHT22;2277;51.626;7.516;2022-12-18T11:40:00;0.30;99.90
4530;DHT22;2277;51.626;7.516;2022-12-18T11:42:20;0.40;99.90
4530;DHT22;2277;51.626;7.516;2022-12-18T11:44:52;0.30;99.90
4530;DHT22;2277;51.626;7.516;2022-12-18T11:47:52;0.30;99.90
4530;DHT22;2277;51.626;7.516;2022-12-18T11:50:24;0.40;99.90
4530;DHT22;2277;51.626;7.516;2022-12-18T11:52:50;0.40;99.90
4530;DHT22;2277;51.626;7.516;2022-12-18T11:58:47;0.40;99.90
4530;DHT22;2277;51.626;7.516;2022-12-18T12:01:03;0.50;99.90
4530;DHT22;2277;51.626;7.516;2022-12-18T12:07:33;0.40;99.90
4530;DHT22;2277;51.626;7.516;2022-12-18T12:09:42;0.40;99.90
4530;DHT22;2277;51.626;7.516;2022-12-18T12:15:10;0.50;99.90
4530;DHT22;2277;51.626;7.516;2022-12-18T12:17:51;0.50;99.90
4530;DHT22;2277;51.626;7.516;2022-12-18T12:20:30;0.50;99.90
4530;DHT22;2277;51.626;7.516;2022-12-18T12:23:06;0.60;99.90
4530;DHT22;2277;51.626;7.516;2022-12-18T12:25:52;0.60;99.90
4530;DHT22;2277;51.626;7.516;2022-12-18T12:31:32;0.90;99.90
4530;DHT22;2277;51.626;7.516;2022-12-18T12:39:37;1.00;99.90
4530;DHT22;2277;51.626;7.516;2022-12-18T12:42:18;1.20;99.90
4530;DHT22;2277;51.626;7.516;2022-12-18T12:45:05;1.10;99.90
4530;DHT22;2277;51.626;7.516;2022-12-18T12:47:38;1.10;99.90
4530;DHT22;2277;51.626;7.516;2022-12-18T12:50:13;1.10;99.90
4530;DHT22;2277;51.626;7.516;2022-12-18T12:52:40;1.20;99.90
4530;DHT22;2277;51.626;7.516;2022-12-18T12:55:17;1.20;99.90
4530;DHT22;2277;51.626;7.516;2022-12-18T12:57:52;1.20;99.90
4530;DHT22;2277;51.626;7.516;2022-12-18T13:00:20;1.20;99.90
4530;DHT22;2277;51.626;7.516;2022-12-18T13:05:38;1.20;99.90
4530;DHT22;2277;51.626;7.516;2022-12-18T13:08:23;1.10;99.90
4530;DHT22;2277;51.626;7.516;2022-12-18T13:10:49;1.00;99.90
4530;DHT22;2277;51.626;7.516;2022-12-18T13:13:52;0.80;99.90
4530;DHT22;2277;51.626;7.516;2022-12-18T13:16:20;0.80;99.90
4530;DHT22;2277;51.626;7.516;2022-12-18T13:19:18;0.70;99.90
4530;DHT22;2277;51.626;7.516;2022-12-18T13:21:52;0.60;99.90
4530;DHT22;2277;51.626;7.516;2022-12-18T13:24:27;0.50;99.90
4530;DHT22;2277;51.626;7.516;2022-12-18T13:26:56;0.50;99.90
4530;DHT22;2277;51.626;7.516;2022-12-18T13:32:20;0.40;99.90
4530;DHT22;2277;51.626;7.516;2022-12-18T13:34:46;0.40;99.90
4530;DHT22;2277;51.626;7.516;2022-12-18T13:39:56;0.30;99.90
4530;DHT22;2277;51.626;7.516;2022-12-18T13:42:34;0.20;99.90
4530;DHT22;2277;51.626;7.516;2022-12-18T13:45:40;0.20;99.90
4530;DHT22;2277;51.626;7.516;2022-12-18T13:48:23;0.20;99.90
4530;DHT22;2277;51.626;7.516;2022-12-18T13:53:26;0.20;99.90
4530;DHT22;2277;51.626;7.516;2022-12-18T13:55:53;0.10;99.90
4530;DHT22;2277;51.626;7.516;2022-12-18T13:58:19;0.20;99.90
4530;DHT22;2277;51.626;7.516;2022-12-18T14:00:44;0.30;99.90
4530;DHT22;2277;51.626;7.516;2022-12-18T14:03:19;0.30;99.90
4530;DHT22;2277;51.626;7.516;2022-12-18T14:05:46;0.30;99.90
4530;DHT22;2277;51.626;7.516;2022-12-18T14:08:18;0.30;99.90
4530;DHT22;2277;51.626;7.516;2022-12-18T14:10:46;0.30;99.90
4530;DHT22;2277;51.626;7.516;2022-12-18T14:13:27;0.30;99.90
4530;DHT22;2277;51.626;7.516;2022-12-18T14:15:53;0.30;99.90
4530;DHT22;2277;51.626;7.516;2022-12-18T14:20:45;0.20;99.90
4530;DHT22;2277;51.626;7.516;2022-12-18T14:26:02;0.20;99.90
4530;DHT22;2277;51.626;7.516;2022-12-18T14:28:29;0.10;99.90
4530;DHT22;2277;51.626;7.516;2022-12-18T14:30:55;0.10;99.90
4530;DHT22;2277;51.626;7.516;2022-12-18T14:33:24;0.00;99.90
4530;DHT22;2277;51.626;7.516;2022-12-18T14:36:04;0.00;99.90
4530;DHT22;2277;51.626;7.516;2022-12-18T14:38:31;0.00;99.90
4530;DHT22;2277;51.626;7.516;2022-12-18T14:43:29;0.10;99.90
4530;DHT22;2277;51.626;7.516;2022-12-18T14:45:56;0.10;99.90
4530;DHT22;2277;51.626;7.516;2022-12-18T14:48:41;0.10;99.90
4530;DHT22;2277;51.626;7.516;2022-12-18T14:53:44;0.10;99.90
4530;DHT22;2277;51.626;7.516;2022-12-18T14:56:22;0.10;99.90
4530;DHT22;2277;51.626;7.516;2022-12-18T15:01:24;0.10;99.90
4530;DHT22;2277;51.626;7.516;2022-12-18T15:03:52;0.10;99.90
4530;DHT22;2277;51.626;7.516;2022-12-18T15:06:25;0.10;99.90
4530;DHT22;2277;51.626;7.516;2022-12-18T15:08:51;0.10;99.90
4530;DHT22;2277;51.626;7.516;2022-12-18T15:11:33;0.10;99.90
4530;DHT22;2277;51.626;7.516;2022-12-18T15:14:03;0.10;99.90
4530;DHT22;2277;51.626;7.516;2022-12-18T15:16:50;0.10;99.90
4530;DHT22;2277;51.626;7.516;2022-12-18T15:19:16;0.10;99.90
4530;DHT22;2277;51.626;7.516;2022-12-18T15:21:43;0.20;99.90
4530;DHT22;2277;51.626;7.516;2022-12-18T15:24:18;0.20;99.90
4530;DHT22;2277;51.626;7.516;2022-12-18T15:26:44;0.30;99.90
4530;DHT22;2277;51.626;7.516;2022-12-18T15:29:20;0.30;99.90
4530;DHT22;2277;51.626;7.516;2022-12-18T15:32:02;0.50;99.90
4530;DHT22;2277;51.626;7.516;2022-12-18T15:34:29;0.60;99.90
4530;DHT22;2277;51.626;7.516;2022-12-18T15:36:55;0.80;99.90
4530;DHT22;2277;51.626;7.516;2022-12-18T15:39:20;0.80;99.90
4530;DHT22;2277;51.626;7.516;2022-12-18T15:41:46;0.90;99.90
4530;DHT22;2277;51.626;7.516;2022-12-18T15:44:30;1.00;99.90
4530;DHT22;2277;51.626;7.516;2022-12-18T15:46:56;1.10;99.90
4530;DHT22;2277;51.626;7.516;2022-12-18T15:49:22;1.10;99.90
4530;DHT22;2277;51.626;7.516;2022-12-18T15:51:59;1.20;99.90
4530;DHT22;2277;51.626;7.516;2022-12-18T15:54:25;1.20;99.90
4530;DHT22;2277;51.626;7.516;2022-12-18T15:57:10;1.30;99.90
4530;DHT22;2277;51.626;7.516;2022-12-18T15:59:52;1.30;99.90
4530;DHT22;2277;51.626;7.516;2022-12-18T16:02:20;1.30;99.90
4530;DHT22;2277;51.626;7.516;2022-12-18T16:04:45;1.30;99.90
4530;DHT22;2277;51.626;7.516;2022-12-18T16:07:11;1.40;99.90
4530;DHT22;2277;51.626;7.516;2022-12-18T16:09:37;1.40;99.90
4530;DHT22;2277;51.626;7.516;2022-12-18T16:12:04;1.40;99.90
4530;DHT22;2277;51.626;7.516;2022-12-18T16:14:31;1.40;99.90
4530;DHT22;2277;51.626;7.516;2022-12-18T16:17:02;1.40;99.90
4530;DHT22;2277;51.626;7.516;2022-12-18T16:19:29;1.50;99.90
4530;DHT22;2277;51.626;7.516;2022-12-18T16:21:57;1.50;99.90
4530;DHT22;2277;51.626;7.516;2022-12-18T16:24:28;1.50;99.90
4530;DHT22;2277;51.626;7.516;2022-12-18T16:26:55;1.50;99.90
4530;DHT22;2277;51.626;7.516;2022-12-18T16:29:20;1.50;99.90
4530;DHT22;2277;51.626;7.516;2022-12-18T16:31:53;1.50;99.90
4530;DHT22;2277;51.626;7.516;2022-12-18T16:34:29;1.50;99.90
4530;DHT22;2277;51.626;7.516;2022-12-18T16:37:00;1.50;99.90
4530;DHT22;2277;51.626;7.516;2022-12-18T16:39:26;1.50;99.90
4530;DHT22;2277;51.626;7.516;2022-12-18T16:41:52;1.50;99.90
4530;DHT22;2277;51.626;7.516;2022-12-18T16:44:18;1.60;99.90
4530;DHT22;2277;51.626;7.516;2022-12-18T16:46:44;1.60;99.90
4530;DHT22;2277;51.626;7.516;2022-12-18T16:49:13;1.60;99.90
4530;DHT22;2277;51.626;7.516;2022-12-18T16:51:39;1.60;99.90
4530;DHT22;2277;51.626;7.516;2022-12-18T16:54:05;1.60;99.90
4530;DHT22;2277;51.626;7.516;2022-12-18T16:56:31;1.60;99.90
4530;DHT22;2277;51.626;7.516;2022-12-18T16:58:59;1.60;99.90
4530;DHT22;2277;51.626;7.516;2022-12-18T17:01:26;1.60;99.90
4530;DHT22;2277;51.626;7.516;2022-12-18T17:03:59;1.70;99.90
4530;DHT22;2277;51.626;7.516;2022-12-18T17:06:27;1.60;99.90
4530;DHT22;2277;51.626;7.516;2022-12-18T17:08:58;1.60;99.90
4530;DHT22;2277;51.626;7.516;2022-12-18T17:11:28;1.70;99.90
4530;DHT22;2277;51.626;7.516;2022-12-18T17:13:55;1.70;99.90
4530;DHT22;2277;51.626;7.516;2022-12-18T17:16:21;1.70;99.90
4530;DHT22;2277;51.626;7.516;2022-12-18T17:18:47;1.60;99.90
4530;DHT22;2277;51.626;7.516;2022-12-18T17:21:13;1.60;99.90
4530;DHT22;2277;51.626;7.516;2022-12-18T17:23:40;1.70;99.90
4530;DHT22;2277;51.626;7.516;2022-12-18T17:26:06;1.80;99.90
4530;DHT22;2277;51.626;7.516;2022-12-18T17:28:34;1.80;99.90
4530;DHT22;2277;51.626;7.516;2022-12-18T17:31:00;1.80;99.90
4530;DHT22;2277;51.626;7.516;2022-12-18T17:33:26;1.80;99.90
4530;DHT22;2277;51.626;7.516;2022-12-18T17:35:53;1.80;99.90
4530;DHT22;2277;51.626;7.516;2022-12-18T17:38:19;1.90;99.90
4530;DHT22;2277;51.626;7.516;2022-12-18T17:40:44;1.80;99.90
4530;DHT22;2277;51.626;7.516;2022-12-18T17:43:10;1.80;99.90
4530;DHT22;2277;51.626;7.516;2022-12-18T17:45:39;1.70;99.90
4530;DHT22;2277;51.626;7.516;2022-12-18T17:48:05;1.80;99.90
4530;DHT22;2277;51.626;7.516;2022-12-18T17:50:32;1.80;99.90
4530;DHT22;2277;51.626;7.516;2022-12-18T17:52:58;1.80;99.90
4530;DHT22;2277;51.626;7.516;2022-12-18T17:55:24;1.80;99.90